sensor_id;sensor_type;location;lat;lon;timestamp;P1;durP1;ratioP1;P2;durP2;ratioP2
59986;SDS011;46181;51.498;5.392;2023-08-20T00:03:51;8.107999;;;2.459999;;
59986;SDS011;46181;51.498;5.392;2023-08-20T00:08:21;7.64;;;2.516;;
59986;SDS011;46181;51.498;5.392;2023-08-20T00:12:51;6.452;;;2.264;;
59986;SDS011;46181;51.498;5.392;2023-08-20T00:17:21;7.916;;;2.472;;
59986;SDS011;46181;51.498;5.392;2023-08-20T00:21:51;6.676001;;;2.308;;
59986;SDS011;46181;51.498;5.392;2023-08-20T00:26:21;8.191999;;;2.7;;
59986;SDS011;46181;51.498;5.392;2023-08-20T00:30:51;5.988;;;2.532;;
59986;SDS011;46181;51.498;5.392;2023-08-20T00:35:21;7.368;;;2.583999;;
59986;SDS011;46181;51.498;5.392;2023-08-20T00:39:51;7.744;;;2.296;;
59986;SDS011;46181;51.498;5.392;2023-08-20T00:44:21;7.468;;;2.512;;
59986;SDS011;46181;51.498;5.392;2023-08-20T00:48:51;7.028;;;2.248;;
59986;SDS011;46181;51.498;5.392;2023-08-20T00:53:21;7.88;;;2.688;;
59986;SDS011;46181;51.498;5.392;2023-08-20T00:57:51;7.920001;;;2.704;;
59986;SDS011;46181;51.498;5.392;2023-08-20T01:02:21;7.636;;;2.712;;
59986;SDS011;46181;51.498;5.392;2023-08-20T01:06:53;7.176;;;2.772;;
59986;SDS011;46181;51.498;5.392;2023-08-20T01:11:21;6.532001;;;2.844;;
59986;SDS011;46181;51.498;5.392;2023-08-20T01:15:51;8.62;;;2.724;;
59986;SDS011;46181;51.498;5.392;2023-08-20T01:20:21;5.964;;;2.564;;
59986;SDS011;46181;51.498;5.392;2023-08-20T01:24:53;8.488001;;;2.392;;
59986;SDS011;46181;51.498;5.392;2023-08-20T01:29:21;7.684001;;;2.460001;;
59986;SDS011;46181;51.498;5.392;2023-08-20T01:33:51;6.044;;;2.539999;;
59986;SDS011;46181;51.498;5.392;2023-08-20T01:38:21;6.488;;;2.684;;
59986;SDS011;46181;51.498;5.392;2023-08-20T01:42:51;8.783999;;;2.584;;
59986;SDS011;46181;51.498;5.392;2023-08-20T01:47:21;5.816;;;2.444;;
59986;SDS011;46181;51.498;5.392;2023-08-20T01:51:51;8.784;;;2.364;;
59986;SDS011;46181;51.498;5.392;2023-08-20T01:56:21;6.408;;;2.635999;;
59986;SDS011;46181;51.498;5.392;2023-08-20T02:00:51;8.544;;;2.652;;
59986;SDS011;46181;51.498;5.392;2023-08-20T02:05:21;7.024;;;2.264;;
59986;SDS011;46181;51.498;5.392;2023-08-20T02:09:51;11.256;;;2.788;;
59986;SDS011;46181;51.498;5.392;2023-08-20T02:14:21;9.135999;;;2.659999;;
59986;SDS011;46181;51.498;5.392;2023-08-20T02:18:51;7.720001;;;2.504;;
59986;SDS011;46181;51.498;5.392;2023-08-20T02:23:21;5.128;;;2.128;;
59986;SDS011;46181;51.498;5.392;2023-08-20T02:27:51;6.256;;;2.252;;
59986;SDS011;46181;51.498;5.392;2023-08-20T02:32:21;6.008;;;2.124;;
59986;SDS011;46181;51.498;5.392;2023-08-20T02:36:51;7.720001;;;2.34;;
59986;SDS011;46181;51.498;5.392;2023-08-20T02:41:21;9.903998;;;2.856;;
59986;SDS011;46181;51.498;5.392;2023-08-20T02:45:51;6.896;;;2.543999;;
59986;SDS011;46181;51.498;5.392;2023-08-20T02:50:21;8.696;;;2.636;;
59986;SDS011;46181;51.498;5.392;2023-08-20T02:54:51;6.296;;;2.468;;
59986;SDS011;46181;51.498;5.392;2023-08-20T02:59:21;5.648;;;2.272;;
59986;SDS011;46181;51.498;5.392;2023-08-20T03:03:51;7.928;;;2.276;;
59986;SDS011;46181;51.498;5.392;2023-08-20T03:08:21;6.508;;;2.24;;
59986;SDS011;46181;51.498;5.392;2023-08-20T03:12:51;6.891999;;;2.62;;
59986;SDS011;46181;51.498;5.392;2023-08-20T03:17:21;6.588;;;2.344;;
59986;SDS011;46181;51.498;5.392;2023-08-20T03:21:51;6.620001;;;2.412;;
59986;SDS011;46181;51.498;5.392;2023-08-20T03:26:21;7.988;;;2.388001;;
59986;SDS011;46181;51.498;5.392;2023-08-20T03:30:51;5.876;;;2.5;;
59986;SDS011;46181;51.498;5.392;2023-08-20T03:35:21;5.564001;;;2.316;;
59986;SDS011;46181;51.498;5.392;2023-08-20T03:39:51;4.8;;;2.54;;
59986;SDS011;46181;51.498;5.392;2023-08-20T03:44:21;6.92;;;2.32;;
59986;SDS011;46181;51.498;5.392;2023-08-20T03:48:51;4.52;;;2.308;;
59986;SDS011;46181;51.498;5.392;2023-08-20T03:53:21;6.896;;;2.4;;
59986;SDS011;46181;51.498;5.392;2023-08-20T03:57:51;6.604001;;;2.412;;
59986;SDS011;46181;51.498;5.392;2023-08-20T04:02:21;5.507999;;;2.508;;
59986;SDS011;46181;51.498;5.392;2023-08-20T04:06:51;5.704001;;;2.508;;
59986;SDS011;46181;51.498;5.392;2023-08-20T04:11:21;6.008;;;2.46;;
59986;SDS011;46181;51.498;5.392;2023-08-20T04:15:51;5.56;;;2.624;;
59986;SDS011;46181;51.498;5.392;2023-08-20T04:20:21;4.980001;;;2.404;;
59986;SDS011;46181;51.498;5.392;2023-08-20T04:24:51;5.012001;;;2.432;;
59986;SDS011;46181;51.498;5.392;2023-08-20T04:29:21;6.692001;;;2.64;;
59986;SDS011;46181;51.498;5.392;2023-08-20T04:33:51;5.188;;;2.776;;
59986;SDS011;46181;51.498;5.392;2023-08-20T04:38:21;6.316;;;3.256001;;
59986;SDS011;46181;51.498;5.392;2023-08-20T04:42:51;7.940001;;;4.067999;;
59986;SDS011;46181;51.498;5.392;2023-08-20T04:47:21;10.076;;;5.564;;
59986;SDS011;46181;51.498;5.392;2023-08-20T04:51:51;9.896001;;;5.816001;;
59986;SDS011;46181;51.498;5.392;2023-08-20T04:56:21;8.4;;;4.504;;
59986;SDS011;46181;51.498;5.392;2023-08-20T05:00:51;10.42;;;4.400001;;
59986;SDS011;46181;51.498;5.392;2023-08-20T05:05:21;6.859999;;;4.167999;;
59986;SDS011;46181;51.498;5.392;2023-08-20T05:09:51;9.504;;;4.28;;
59986;SDS011;46181;51.498;5.392;2023-08-20T05:14:21;7.78;;;3.5;;
59986;SDS011;46181;51.498;5.392;2023-08-20T05:18:51;6.371999;;;3.316;;
59986;SDS011;46181;51.498;5.392;2023-08-20T05:23:21;6.772001;;;3.34;;
59986;SDS011;46181;51.498;5.392;2023-08-20T05:27:51;6.968;;;3.488;;
59986;SDS011;46181;51.498;5.392;2023-08-20T05:32:21;10.144;;;3.512;;
59986;SDS011;46181;51.498;5.392;2023-08-20T05:36:51;7.675999;;;3.328;;
59986;SDS011;46181;51.498;5.392;2023-08-20T05:41:21;7.108;;;3.688;;
59986;SDS011;46181;51.498;5.392;2023-08-20T05:45:51;16.644;;;7.568;;
59986;SDS011;46181;51.498;5.392;2023-08-20T05:50:21;21.636;;;12.212;;
59986;SDS011;46181;51.498;5.392;2023-08-20T05:54:51;13.024;;;6.428;;
59986;SDS011;46181;51.498;5.392;2023-08-20T05:59:21;7.248001;;;3.567999;;
59986;SDS011;46181;51.498;5.392;2023-08-20T06:03:51;10.82;;;3.623999;;
59986;SDS011;46181;51.498;5.392;2023-08-20T06:08:21;8.212;;;3.28;;
59986;SDS011;46181;51.498;5.392;2023-08-20T06:12:51;6.344;;;3.016;;
59986;SDS011;46181;51.498;5.392;2023-08-20T06:17:21;6.512;;;3.24;;
59986;SDS011;46181;51.498;5.392;2023-08-20T06:21:51;6.868;;;2.98;;
59986;SDS011;46181;51.498;5.392;2023-08-20T06:26:21;9.195998;;;3.032;;
59986;SDS011;46181;51.498;5.392;2023-08-20T06:30:51;8.336;;;2.884;;
59986;SDS011;46181;51.498;5.392;2023-08-20T06:35:21;10.56;;;2.884;;
59986;SDS011;46181;51.498;5.392;2023-08-20T06:39:51;8.936;;;3.288;;
59986;SDS011;46181;51.498;5.392;2023-08-20T06:44:21;7.82;;;3.112;;
59986;SDS011;46181;51.498;5.392;2023-08-20T06:48:51;12.004;;;3.628;;
59986;SDS011;46181;51.498;5.392;2023-08-20T06:53:21;9.716;;;3.216;;
59986;SDS011;46181;51.498;5.392;2023-08-20T06:57:51;11.28;;;3.804001;;
59986;SDS011;46181;51.498;5.392;2023-08-20T07:02:21;12.116;;;4.087999;;
59986;SDS011;46181;51.498;5.392;2023-08-20T07:06:51;9.263998;;;3.448;;
59986;SDS011;46181;51.498;5.392;2023-08-20T07:11:21;11.524;;;3.444;;
59986;SDS011;46181;51.498;5.392;2023-08-20T07:15:51;12.656;;;6.052;;
59986;SDS011;46181;51.498;5.392;2023-08-20T07:20:21;7.128;;;3.444;;
59986;SDS011;46181;51.498;5.392;2023-08-20T07:24:51;8.147999;;;3.224;;
59986;SDS011;46181;51.498;5.392;2023-08-20T07:29:21;9.252001;;;3.284;;
59986;SDS011;46181;51.498;5.392;2023-08-20T07:33:51;6.975999;;;3.356;;
59986;SDS011;46181;51.498;5.392;2023-08-20T07:38:21;7.803999;;;2.716;;
59986;SDS011;46181;51.498;5.392;2023-08-20T07:42:51;9.796;;;2.712;;
59986;SDS011;46181;51.498;5.392;2023-08-20T07:47:21;7.5;;;2.636;;
59986;SDS011;46181;51.498;5.392;2023-08-20T07:51:51;6.776001;;;2.492;;
59986;SDS011;46181;51.498;5.392;2023-08-20T07:56:21;6.536;;;2.624;;
59986;SDS011;46181;51.498;5.392;2023-08-20T08:00:51;7.459999;;;2.62;;
59986;SDS011;46181;51.498;5.392;2023-08-20T08:05:21;10.632;;;3.536;;
59986;SDS011;46181;51.498;5.392;2023-08-20T08:09:51;6.052;;;2.416;;
59986;SDS011;46181;51.498;5.392;2023-08-20T08:14:21;5.412;;;1.928;;
59986;SDS011;46181;51.498;5.392;2023-08-20T08:18:51;7.736001;;;2.172;;
59986;SDS011;46181;51.498;5.392;2023-08-20T08:23:21;6.896;;;2.559999;;
59986;SDS011;46181;51.498;5.392;2023-08-20T08:27:51;7.872;;;1.924;;
59986;SDS011;46181;51.498;5.392;2023-08-20T08:32:21;5.292;;;2.232;;
59986;SDS011;46181;51.498;5.392;2023-08-20T08:36:51;6.132001;;;2.088;;
59986;SDS011;46181;51.498;5.392;2023-08-20T08:41:22;5.696;;;2.096;;
59986;SDS011;46181;51.498;5.392;2023-08-20T08:45:51;4.524001;;;1.932;;
59986;SDS011;46181;51.498;5.392;2023-08-20T08:50:21;5.504;;;1.324;;
59986;SDS011;46181;51.498;5.392;2023-08-20T08:54:51;5.084001;;;1.264;;
59986;SDS011;46181;51.498;5.392;2023-08-20T08:59:21;3.848;;;1.184;;
59986;SDS011;46181;51.498;5.392;2023-08-20T09:03:51;4.176001;;;1.3;;
59986;SDS011;46181;51.498;5.392;2023-08-20T09:08:25;3.375999;;;1.3;;
59986;SDS011;46181;51.498;5.392;2023-08-20T09:12:51;3.732001;;;1.2;;
59986;SDS011;46181;51.498;5.392;2023-08-20T09:17:21;3.664;;;1.5;;
59986;SDS011;46181;51.498;5.392;2023-08-20T09:21:51;5.032001;;;1.132;;
59986;SDS011;46181;51.498;5.392;2023-08-20T09:26:21;3.64;;;0.92;;
59986;SDS011;46181;51.498;5.392;2023-08-20T09:31:01;3.868;;;1.368;;
59986;SDS011;46181;51.498;5.392;2023-08-20T09:35:21;5.416;;;1.328;;
59986;SDS011;46181;51.498;5.392;2023-08-20T09:39:51;3.592;;;1.1;;
59986;SDS011;46181;51.498;5.392;2023-08-20T09:44:21;2.540001;;;0.844;;
59986;SDS011;46181;51.498;5.392;2023-08-20T09:48:51;3.412;;;1.16;;
59986;SDS011;46181;51.498;5.392;2023-08-20T09:53:22;3.604;;;0.748;;
59986;SDS011;46181;51.498;5.392;2023-08-20T09:57:51;3.504;;;0.648;;
59986;SDS011;46181;51.498;5.392;2023-08-20T10:02:21;2.784;;;0.5;;
59986;SDS011;46181;51.498;5.392;2023-08-20T10:06:51;2.48;;;0.724;;
59986;SDS011;46181;51.498;5.392;2023-08-20T10:11:21;3.536;;;0.748;;
59986;SDS011;46181;51.498;5.392;2023-08-20T10:15:51;5.548;;;0.772;;
59986;SDS011;46181;51.498;5.392;2023-08-20T10:20:21;2.528;;;0.764;;
59986;SDS011;46181;51.498;5.392;2023-08-20T10:24:51;3.048;;;1.188;;
59986;SDS011;46181;51.498;5.392;2023-08-20T10:33:55;3.588;;;0.772;;
59986;SDS011;46181;51.498;5.392;2023-08-20T10:38:22;3.024001;;;0.776;;
59986;SDS011;46181;51.498;5.392;2023-08-20T10:42:51;2.42;;;0.6;;
59986;SDS011;46181;51.498;5.392;2023-08-20T10:47:21;3.895999;;;0.7;;
59986;SDS011;46181;51.498;5.392;2023-08-20T10:51:51;5.132;;;0.768;;
59986;SDS011;46181;51.498;5.392;2023-08-20T10:56:21;2.551999;;;0.524;;
59986;SDS011;46181;51.498;5.392;2023-08-20T11:05:21;4.008001;;;0.6;;
59986;SDS011;46181;51.498;5.392;2023-08-20T11:09:51;2.928;;;0.708;;
59986;SDS011;46181;51.498;5.392;2023-08-20T11:14:21;4.392;;;0.608;;
59986;SDS011;46181;51.498;5.392;2023-08-20T11:18:51;2.492;;;0.608;;
59986;SDS011;46181;51.498;5.392;2023-08-20T11:23:21;2.78;;;0.68;;
59986;SDS011;46181;51.498;5.392;2023-08-20T11:27:51;3.46;;;0.668;;
59986;SDS011;46181;51.498;5.392;2023-08-20T11:32:21;2.216;;;0.7;;
59986;SDS011;46181;51.498;5.392;2023-08-20T11:36:51;2.204;;;0.516;;
59986;SDS011;46181;51.498;5.392;2023-08-20T11:41:21;4.696;;;0.728;;
59986;SDS011;46181;51.498;5.392;2023-08-20T11:45:51;3.536001;;;1.088;;
59986;SDS011;46181;51.498;5.392;2023-08-20T11:50:21;4.024;;;0.6;;
59986;SDS011;46181;51.498;5.392;2023-08-20T11:54:51;2.996;;;0.6;;
59986;SDS011;46181;51.498;5.392;2023-08-20T11:59:21;3.612;;;0.684;;
59986;SDS011;46181;51.498;5.392;2023-08-20T12:03:51;3.204;;;0.788;;
59986;SDS011;46181;51.498;5.392;2023-08-20T12:08:21;3.344;;;0.824;;
59986;SDS011;46181;51.498;5.392;2023-08-20T12:12:51;3.555999;;;0.816;;
59986;SDS011;46181;51.498;5.392;2023-08-20T12:17:21;4.912;;;0.912;;
59986;SDS011;46181;51.498;5.392;2023-08-20T12:21:51;4;;;0.904;;
59986;SDS011;46181;51.498;5.392;2023-08-20T12:26:21;4.224;;;1.076;;
59986;SDS011;46181;51.498;5.392;2023-08-20T12:30:51;3.776;;;0.716;;
59986;SDS011;46181;51.498;5.392;2023-08-20T12:35:21;4.360001;;;0.792;;
59986;SDS011;46181;51.498;5.392;2023-08-20T12:39:51;4.4;;;0.808;;
59986;SDS011;46181;51.498;5.392;2023-08-20T12:44:21;4.472;;;1.164;;
59986;SDS011;46181;51.498;5.392;2023-08-20T12:48:51;3.172001;;;0.74;;
59986;SDS011;46181;51.498;5.392;2023-08-20T12:53:21;3.676;;;0.776;;
59986;SDS011;46181;51.498;5.392;2023-08-20T12:57:57;4.303999;;;0.724;;
59986;SDS011;46181;51.498;5.392;2023-08-20T13:02:22;4.652001;;;1.068;;
59986;SDS011;46181;51.498;5.392;2023-08-20T13:06:52;5.004001;;;0.896;;
59986;SDS011;46181;51.498;5.392;2023-08-20T13:11:21;4.312;;;0.884;;
59986;SDS011;46181;51.498;5.392;2023-08-20T13:15:52;3.52;;;0.524;;
59986;SDS011;46181;51.498;5.392;2023-08-20T13:20:21;2.288;;;0.684;;
59986;SDS011;46181;51.498;5.392;2023-08-20T13:24:51;3.488;;;0.868;;
59986;SDS011;46181;51.498;5.392;2023-08-20T13:29:21;4.323999;;;0.748;;
59986;SDS011;46181;51.498;5.392;2023-08-20T13:33:51;3.704;;;1.012;;
59986;SDS011;46181;51.498;5.392;2023-08-20T13:38:21;3.8;;;0.776;;
59986;SDS011;46181;51.498;5.392;2023-08-20T13:42:51;4.852;;;1.024;;
59986;SDS011;46181;51.498;5.392;2023-08-20T13:47:21;4.359999;;;1.044;;
59986;SDS011;46181;51.498;5.392;2023-08-20T13:51:51;3.912;;;0.9;;
59986;SDS011;46181;51.498;5.392;2023-08-20T13:56:21;4.612;;;0.916;;
59986;SDS011;46181;51.498;5.392;2023-08-20T14:00:51;4.88;;;1.016;;
59986;SDS011;46181;51.498;5.392;2023-08-20T14:05:21;3.411999;;;0.792;;
59986;SDS011;46181;51.498;5.392;2023-08-20T14:09:51;4.119999;;;1.1;;
59986;SDS011;46181;51.498;5.392;2023-08-20T14:14:21;3.684;;;0.868;;
59986;SDS011;46181;51.498;5.392;2023-08-20T14:18:51;3.552;;;0.784;;
59986;SDS011;46181;51.498;5.392;2023-08-20T14:23:21;4.039999;;;0.748;;
59986;SDS011;46181;51.498;5.392;2023-08-20T14:27:51;3.676;;;0.808;;
59986;SDS011;46181;51.498;5.392;2023-08-20T14:32:21;5.667999;;;0.964;;
59986;SDS011;46181;51.498;5.392;2023-08-20T14:36:51;5.68;;;1.116;;
59986;SDS011;46181;51.498;5.392;2023-08-20T14:41:21;4.044;;;0.764;;
59986;SDS011;46181;51.498;5.392;2023-08-20T14:45:51;4.508;;;0.9;;
59986;SDS011;46181;51.498;5.392;2023-08-20T14:50:21;2.188;;;0.7;;
59986;SDS011;46181;51.498;5.392;2023-08-20T14:54:51;3.076;;;0.816;;
59986;SDS011;46181;51.498;5.392;2023-08-20T14:59:21;3.164;;;0.816;;
59986;SDS011;46181;51.498;5.392;2023-08-20T15:03:51;3.392;;;1.044;;
59986;SDS011;46181;51.498;5.392;2023-08-20T15:08:21;5.376;;;1.308;;
59986;SDS011;46181;51.498;5.392;2023-08-20T15:12:51;6.472001;;;1.216;;
59986;SDS011;46181;51.498;5.392;2023-08-20T15:17:21;4.344;;;0.98;;
59986;SDS011;46181;51.498;5.392;2023-08-20T15:21:51;3.64;;;1.128;;
59986;SDS011;46181;51.498;5.392;2023-08-20T15:26:21;6.632001;;;0.992;;
59986;SDS011;46181;51.498;5.392;2023-08-20T15:30:51;3.504;;;1;;
59986;SDS011;46181;51.498;5.392;2023-08-20T15:35:21;3.676;;;1.304;;
59986;SDS011;46181;51.498;5.392;2023-08-20T15:39:51;4.904001;;;1.056;;
59986;SDS011;46181;51.498;5.392;2023-08-20T15:44:21;5.02;;;1.304;;
59986;SDS011;46181;51.498;5.392;2023-08-20T15:48:51;4.752;;;0.924;;
59986;SDS011;46181;51.498;5.392;2023-08-20T15:53:21;4.491999;;;1.032;;
59986;SDS011;46181;51.498;5.392;2023-08-20T15:57:51;4.048;;;1.208;;
59986;SDS011;46181;51.498;5.392;2023-08-20T16:02:21;4.716001;;;1.228;;
59986;SDS011;46181;51.498;5.392;2023-08-20T16:06:51;3.28;;;1.036;;
59986;SDS011;46181;51.498;5.392;2023-08-20T16:11:21;4.247999;;;1.048;;
59986;SDS011;46181;51.498;5.392;2023-08-20T16:15:51;3.664001;;;0.924;;
59986;SDS011;46181;51.498;5.392;2023-08-20T16:20:21;5.148;;;1.14;;
59986;SDS011;46181;51.498;5.392;2023-08-20T16:24:51;6.044;;;1.092;;
59986;SDS011;46181;51.498;5.392;2023-08-20T16:29:21;4.840001;;;1.092;;
59986;SDS011;46181;51.498;5.392;2023-08-20T16:33:51;5.616;;;0.816;;
59986;SDS011;46181;51.498;5.392;2023-08-20T16:38:21;3.072;;;0.76;;
59986;SDS011;46181;51.498;5.392;2023-08-20T16:42:51;5.152;;;1.112;;
59986;SDS011;46181;51.498;5.392;2023-08-20T16:47:21;4.527999;;;1;;
59986;SDS011;46181;51.498;5.392;2023-08-20T16:51:51;4.5;;;1.576;;
59986;SDS011;46181;51.498;5.392;2023-08-20T16:56:21;5.304;;;1.56;;
59986;SDS011;46181;51.498;5.392;2023-08-20T17:00:51;4.212;;;1.3;;
59986;SDS011;46181;51.498;5.392;2023-08-20T17:05:21;5.416;;;1.424;;
59986;SDS011;46181;51.498;5.392;2023-08-20T17:09:51;6.28;;;1.416;;
59986;SDS011;46181;51.498;5.392;2023-08-20T17:14:21;6.211999;;;1.528;;
59986;SDS011;46181;51.498;5.392;2023-08-20T17:18:51;3.9;;;1.5;;
59986;SDS011;46181;51.498;5.392;2023-08-20T17:23:21;9.567999;;;2.68;;
59986;SDS011;46181;51.498;5.392;2023-08-20T17:27:51;5.132;;;1.316;;
59986;SDS011;46181;51.498;5.392;2023-08-20T17:32:21;4.084;;;0.956;;
59986;SDS011;46181;51.498;5.392;2023-08-20T17:36:51;5.196001;;;1.18;;
59986;SDS011;46181;51.498;5.392;2023-08-20T17:41:21;4.056;;;0.908;;
59986;SDS011;46181;51.498;5.392;2023-08-20T17:45:52;5.56;;;1.016;;
59986;SDS011;46181;51.498;5.392;2023-08-20T17:50:21;4.52;;;1.16;;
59986;SDS011;46181;51.498;5.392;2023-08-20T17:54:51;4.039999;;;1.104;;
59986;SDS011;46181;51.498;5.392;2023-08-20T17:59:21;3.792;;;0.932;;
59986;SDS011;46181;51.498;5.392;2023-08-20T18:03:51;6.764001;;;1.128;;
59986;SDS011;46181;51.498;5.392;2023-08-20T18:08:21;6.707999;;;1.164;;
59986;SDS011;46181;51.498;5.392;2023-08-20T18:12:52;5.868;;;1.308;;
59986;SDS011;46181;51.498;5.392;2023-08-20T18:17:21;4.72;;;1.184;;
59986;SDS011;46181;51.498;5.392;2023-08-20T18:21:52;4.339999;;;0.94;;
59986;SDS011;46181;51.498;5.392;2023-08-20T18:26:21;5.556001;;;1.156;;
59986;SDS011;46181;51.498;5.392;2023-08-20T18:30:52;4.268;;;1.2;;
59986;SDS011;46181;51.498;5.392;2023-08-20T18:35:21;4.936001;;;1.3;;
59986;SDS011;46181;51.498;5.392;2023-08-20T18:39:51;8.308;;;1.472;;
59986;SDS011;46181;51.498;5.392;2023-08-20T18:44:21;6.212001;;;1.46;;
59986;SDS011;46181;51.498;5.392;2023-08-20T18:48:51;5.944;;;1.232;;
59986;SDS011;46181;51.498;5.392;2023-08-20T18:53:22;5.667999;;;1.416;;
59986;SDS011;46181;51.498;5.392;2023-08-20T18:57:51;4.412001;;;1.508;;
59986;SDS011;46181;51.498;5.392;2023-08-20T19:02:21;4.54;;;1.368;;
59986;SDS011;46181;51.498;5.392;2023-08-20T19:06:53;8.048;;;1.436;;
59986;SDS011;46181;51.498;5.392;2023-08-20T19:11:21;6.743999;;;1.384;;
59986;SDS011;46181;51.498;5.392;2023-08-20T19:15:51;4.076;;;1.4;;
59986;SDS011;46181;51.498;5.392;2023-08-20T19:20:21;5.816;;;1.472;;
59986;SDS011;46181;51.498;5.392;2023-08-20T19:24:51;5.404;;;1.348;;
59986;SDS011;46181;51.498;5.392;2023-08-20T19:29:21;4.944;;;1.46;;
59986;SDS011;46181;51.498;5.392;2023-08-20T19:33:52;5.908;;;1.308;;
59986;SDS011;46181;51.498;5.392;2023-08-20T19:38:21;5.872;;;1.684;;
59986;SDS011;46181;51.498;5.392;2023-08-20T19:42:52;5.359999;;;1.224;;
59986;SDS011;46181;51.498;5.392;2023-08-20T19:47:21;4.468;;;1.368;;
59986;SDS011;46181;51.498;5.392;2023-08-20T19:51:52;5.804;;;1.296;;
59986;SDS011;46181;51.498;5.392;2023-08-20T19:56:21;6.175999;;;1.616;;
59986;SDS011;46181;51.498;5.392;2023-08-20T20:00:52;4.868;;;1.3;;
59986;SDS011;46181;51.498;5.392;2023-08-20T20:05:22;6.499999;;;1.604;;
59986;SDS011;46181;51.498;5.392;2023-08-20T20:09:52;5.408001;;;1.5;;
59986;SDS011;46181;51.498;5.392;2023-08-20T20:14:22;6.387999;;;1.416;;
59986;SDS011;46181;51.498;5.392;2023-08-20T20:18:52;5.624;;;1.544;;
59986;SDS011;46181;51.498;5.392;2023-08-20T20:23:22;6.508;;;1.708001;;
59986;SDS011;46181;51.498;5.392;2023-08-20T20:27:52;4.64;;;1.612;;
59986;SDS011;46181;51.498;5.392;2023-08-20T20:32:22;4.472;;;1.28;;
59986;SDS011;46181;51.498;5.392;2023-08-20T20:36:52;5.156;;;1.412;;
59986;SDS011;46181;51.498;5.392;2023-08-20T20:41:22;4.856;;;1.264;;
59986;SDS011;46181;51.498;5.392;2023-08-20T20:45:52;5.56;;;1.488;;
59986;SDS011;46181;51.498;5.392;2023-08-20T20:50:21;7.787999;;;1.728001;;
59986;SDS011;46181;51.498;5.392;2023-08-20T20:54:52;5.776;;;1.544;;
59986;SDS011;46181;51.498;5.392;2023-08-20T20:59:22;6.247999;;;1.604;;
59986;SDS011;46181;51.498;5.392;2023-08-20T21:03:52;5.52;;;1.24;;
59986;SDS011;46181;51.498;5.392;2023-08-20T21:08:22;3.928;;;1.468;;
59986;SDS011;46181;51.498;5.392;2023-08-20T21:12:52;8.044001;;;1.492;;
59986;SDS011;46181;51.498;5.392;2023-08-20T21:17:22;6.820001;;;1.416;;
59986;SDS011;46181;51.498;5.392;2023-08-20T21:21:54;6.368001;;;1.268;;
59986;SDS011;46181;51.498;5.392;2023-08-20T21:26:22;4.699999;;;1.152;;
59986;SDS011;46181;51.498;5.392;2023-08-20T21:30:52;5.136;;;1.564;;
59986;SDS011;46181;51.498;5.392;2023-08-20T21:35:22;6.488;;;1.44;;
59986;SDS011;46181;51.498;5.392;2023-08-20T21:39:52;5.408001;;;1.532;;
59986;SDS011;46181;51.498;5.392;2023-08-20T21:44:22;6.172001;;;1.396;;
59986;SDS011;46181;51.498;5.392;2023-08-20T21:48:52;6.251999;;;1.288;;
59986;SDS011;46181;51.498;5.392;2023-08-20T21:53:22;5.216;;;1.636;;
59986;SDS011;46181;51.498;5.392;2023-08-20T21:57:52;6.756001;;;1.556;;
59986;SDS011;46181;51.498;5.392;2023-08-20T22:02:22;5.504;;;1.6;;
59986;SDS011;46181;51.498;5.392;2023-08-20T22:06:52;5.744001;;;1.524;;
59986;SDS011;46181;51.498;5.392;2023-08-20T22:11:22;6.328001;;;1.628;;
59986;SDS011;46181;51.498;5.392;2023-08-20T22:15:52;7.855999;;;2.06;;
59986;SDS011;46181;51.498;5.392;2023-08-20T22:20:22;10.484;;;4.123999;;
59986;SDS011;46181;51.498;5.392;2023-08-20T22:24:52;7.164;;;1.716;;
59986;SDS011;46181;51.498;5.392;2023-08-20T22:29:22;7.228001;;;1.732;;
59986;SDS011;46181;51.498;5.392;2023-08-20T22:33:52;6.652;;;1.608;;
59986;SDS011;46181;51.498;5.392;2023-08-20T22:38:22;6.288001;;;1.692;;
59986;SDS011;46181;51.498;5.392;2023-08-20T22:42:52;4.807999;;;1.684;;
59986;SDS011;46181;51.498;5.392;2023-08-20T22:47:22;6.792001;;;1.568;;
59986;SDS011;46181;51.498;5.392;2023-08-20T22:51:52;6.179999;;;1.496;;
59986;SDS011;46181;51.498;5.392;2023-08-20T22:56:22;3.884001;;;1.572;;
59986;SDS011;46181;51.498;5.392;2023-08-20T23:00:52;5.047999;;;1.68;;
59986;SDS011;46181;51.498;5.392;2023-08-20T23:05:22;5.320001;;;1.696;;
59986;SDS011;46181;51.498;5.392;2023-08-20T23:09:52;6.528001;;;1.76;;
59986;SDS011;46181;51.498;5.392;2023-08-20T23:14:22;5.247999;;;1.756;;
59986;SDS011;46181;51.498;5.392;2023-08-20T23:18:52;7.303999;;;1.808;;
59986;SDS011;46181;51.498;5.392;2023-08-20T23:23:22;7.548;;;2.208;;
59986;SDS011;46181;51.498;5.392;2023-08-20T23:27:52;4.256001;;;1.616;;
59986;SDS011;46181;51.498;5.392;2023-08-20T23:32:22;5.716;;;1.6;;
59986;SDS011;46181;51.498;5.392;2023-08-20T23:36:52;7.224001;;;1.752;;
59986;SDS011;46181;51.498;5.392;2023-08-20T23:41:22;6.524;;;2.22;;
59986;SDS011;46181;51.498;5.392;2023-08-20T23:45:52;8.056001;;;2.044;;
59986;SDS011;46181;51.498;5.392;2023-08-20T23:50:22;7.175999;;;1.884;;
59986;SDS011;46181;51.498;5.392;2023-08-20T23:54:52;7.627998;;;2;;
59986;SDS011;46181;51.498;5.392;2023-08-20T23:59:22;5.795999;;;1.744;;
